sensor_id;sensor_type;location;lat;lon;timestamp;P1;durP1;ratioP1;P2;durP2;ratioP2
73919;SDS011;62266;53.348;-1.496;2023-06-19T14:11:48;5.68;;;2.90;;
73919;SDS011;62266;53.348;-1.496;2023-06-19T14:14:33;6.35;;;3.17;;
73919;SDS011;62266;53.348;-1.496;2023-06-19T14:17:17;4.73;;;3.10;;
73919;SDS011;62266;53.348;-1.496;2023-06-19T14:20:00;4.35;;;2.85;;
73919;SDS011;62266;53.348;-1.496;2023-06-19T14:22:44;4.35;;;2.88;;
73919;SDS011;62266;53.348;-1.496;2023-06-19T14:25:28;5.85;;;2.97;;
73919;SDS011;62266;53.348;-1.496;2023-06-19T14:28:12;5.78;;;2.90;;
73919;SDS011;62266;53.348;-1.496;2023-06-19T14:30:58;5.37;;;2.93;;
73919;SDS011;62266;53.348;-1.496;2023-06-19T14:33:42;5.45;;;2.53;;
73919;SDS011;62266;53.348;-1.496;2023-06-19T14:36:27;4.45;;;2.70;;
73919;SDS011;62266;53.348;-1.496;2023-06-19T14:39:11;3.83;;;2.60;;
73919;SDS011;62266;53.348;-1.496;2023-06-19T14:41:55;4.25;;;2.45;;
73919;SDS011;62266;53.348;-1.496;2023-06-19T14:44:42;5.10;;;2.87;;
73919;SDS011;62266;53.348;-1.496;2023-06-19T14:47:26;4.28;;;2.75;;
73919;SDS011;62266;53.348;-1.496;2023-06-19T14:50:12;3.42;;;2.40;;
73919;SDS011;62266;53.348;-1.496;2023-06-19T14:52:57;5.78;;;3.10;;
73919;SDS011;62266;53.348;-1.496;2023-06-19T14:55:40;3.70;;;2.85;;
73919;SDS011;62266;53.348;-1.496;2023-06-19T14:58:29;4.17;;;2.50;;
73919;SDS011;62266;53.348;-1.496;2023-06-19T15:01:13;3.72;;;2.50;;
73919;SDS011;62266;53.348;-1.496;2023-06-19T15:03:58;4.35;;;2.25;;
73919;SDS011;62266;53.348;-1.496;2023-06-19T15:06:42;4.05;;;2.25;;
73919;SDS011;62266;53.348;-1.496;2023-06-19T15:09:26;3.70;;;2.10;;
73919;SDS011;62266;53.348;-1.496;2023-06-19T15:12:10;3.93;;;1.97;;
73919;SDS011;62266;53.348;-1.496;2023-06-19T15:14:54;2.80;;;2.20;;
73919;SDS011;62266;53.348;-1.496;2023-06-19T15:17:38;2.63;;;2.10;;
73919;SDS011;62266;53.348;-1.496;2023-06-19T15:20:22;4.22;;;2.15;;
73919;SDS011;62266;53.348;-1.496;2023-06-19T15:23:06;3.03;;;2.30;;
73919;SDS011;62266;53.348;-1.496;2023-06-19T15:25:50;3.80;;;1.67;;
73919;SDS011;62266;53.348;-1.496;2023-06-19T15:28:36;3.75;;;1.98;;
73919;SDS011;62266;53.348;-1.496;2023-06-19T15:31:23;2.40;;;1.90;;
73919;SDS011;62266;53.348;-1.496;2023-06-19T15:34:07;2.30;;;1.70;;
73919;SDS011;62266;53.348;-1.496;2023-06-19T15:36:51;4.13;;;1.95;;
73919;SDS011;62266;53.348;-1.496;2023-06-19T15:39:35;3.40;;;2.20;;
73919;SDS011;62266;53.348;-1.496;2023-06-19T15:42:20;3.08;;;2.10;;
73919;SDS011;62266;53.348;-1.496;2023-06-19T15:45:04;3.83;;;2.10;;
73919;SDS011;62266;53.348;-1.496;2023-06-19T15:47:48;3.28;;;2.10;;
73919;SDS011;62266;53.348;-1.496;2023-06-19T15:50:33;2.58;;;2.17;;
73919;SDS011;62266;53.348;-1.496;2023-06-19T15:53:17;3.77;;;2.00;;
73919;SDS011;62266;53.348;-1.496;2023-06-19T15:56:01;3.35;;;1.85;;
73919;SDS011;62266;53.348;-1.496;2023-06-19T15:58:45;3.08;;;1.92;;
73919;SDS011;62266;53.348;-1.496;2023-06-19T16:01:29;4.35;;;2.10;;
73919;SDS011;62266;53.348;-1.496;2023-06-19T16:04:13;4.78;;;2.30;;
73919;SDS011;62266;53.348;-1.496;2023-06-19T16:06:57;3.60;;;1.93;;
73919;SDS011;62266;53.348;-1.496;2023-06-19T16:09:42;3.63;;;2.00;;
73919;SDS011;62266;53.348;-1.496;2023-06-19T16:12:26;3.83;;;1.80;;
73919;SDS011;62266;53.348;-1.496;2023-06-19T16:15:13;3.10;;;1.90;;
73919;SDS011;62266;53.348;-1.496;2023-06-19T16:17:58;2.88;;;1.88;;
73919;SDS011;62266;53.348;-1.496;2023-06-19T16:20:42;3.00;;;1.50;;
73919;SDS011;62266;53.348;-1.496;2023-06-19T16:23:26;2.65;;;1.55;;
73919;SDS011;62266;53.348;-1.496;2023-06-19T16:26:10;2.97;;;1.60;;
73919;SDS011;62266;53.348;-1.496;2023-06-19T16:28:54;3.92;;;1.70;;
73919;SDS011;62266;53.348;-1.496;2023-06-19T16:31:39;3.08;;;1.50;;
73919;SDS011;62266;53.348;-1.496;2023-06-19T16:34:23;2.40;;;1.70;;
73919;SDS011;62266;53.348;-1.496;2023-06-19T16:37:07;6.00;;;2.63;;
73919;SDS011;62266;53.348;-1.496;2023-06-19T16:39:51;3.22;;;1.85;;
73919;SDS011;62266;53.348;-1.496;2023-06-19T16:42:35;2.63;;;1.90;;
73919;SDS011;62266;53.348;-1.496;2023-06-19T16:45:19;3.30;;;1.80;;
73919;SDS011;62266;53.348;-1.496;2023-06-19T16:48:03;3.10;;;1.60;;
73919;SDS011;62266;53.348;-1.496;2023-06-19T16:50:48;1.60;;;1.38;;
73919;SDS011;62266;53.348;-1.496;2023-06-19T16:53:32;2.30;;;1.70;;
73919;SDS011;62266;53.348;-1.496;2023-06-19T16:56:16;3.60;;;1.55;;
73919;SDS011;62266;53.348;-1.496;2023-06-19T16:59:00;2.92;;;2.03;;
73919;SDS011;62266;53.348;-1.496;2023-06-19T17:01:45;4.27;;;1.50;;
73919;SDS011;62266;53.348;-1.496;2023-06-19T17:04:29;3.35;;;1.60;;
73919;SDS011;62266;53.348;-1.496;2023-06-19T17:07:13;3.90;;;1.90;;
73919;SDS011;62266;53.348;-1.496;2023-06-19T17:09:57;2.10;;;1.70;;
73919;SDS011;62266;53.348;-1.496;2023-06-19T17:12:41;3.45;;;1.70;;
73919;SDS011;62266;53.348;-1.496;2023-06-19T17:15:25;2.87;;;1.73;;
73919;SDS011;62266;53.348;-1.496;2023-06-19T17:18:14;2.50;;;1.73;;
73919;SDS011;62266;53.348;-1.496;2023-06-19T17:20:59;3.38;;;1.80;;
73919;SDS011;62266;53.348;-1.496;2023-06-19T17:23:46;3.53;;;1.65;;
73919;SDS011;62266;53.348;-1.496;2023-06-19T17:26:30;2.90;;;1.80;;
73919;SDS011;62266;53.348;-1.496;2023-06-19T17:29:14;5.60;;;2.00;;
73919;SDS011;62266;53.348;-1.496;2023-06-19T17:31:58;3.00;;;2.10;;
73919;SDS011;62266;53.348;-1.496;2023-06-19T17:34:43;3.15;;;1.70;;
73919;SDS011;62266;53.348;-1.496;2023-06-19T17:37:27;3.17;;;1.90;;
73919;SDS011;62266;53.348;-1.496;2023-06-19T17:40:11;2.58;;;1.70;;
73919;SDS011;62266;53.348;-1.496;2023-06-19T17:42:56;2.97;;;1.83;;
73919;SDS011;62266;53.348;-1.496;2023-06-19T17:45:40;4.43;;;1.80;;
73919;SDS011;62266;53.348;-1.496;2023-06-19T17:48:25;3.40;;;2.35;;
73919;SDS011;62266;53.348;-1.496;2023-06-19T17:51:09;3.15;;;1.90;;
73919;SDS011;62266;53.348;-1.496;2023-06-19T17:53:56;5.55;;;2.05;;
73919;SDS011;62266;53.348;-1.496;2023-06-19T17:56:40;5.53;;;2.00;;
73919;SDS011;62266;53.348;-1.496;2023-06-19T17:59:28;3.72;;;1.70;;
73919;SDS011;62266;53.348;-1.496;2023-06-19T18:02:12;3.20;;;1.70;;
73919;SDS011;62266;53.348;-1.496;2023-06-19T18:04:56;3.63;;;1.60;;
73919;SDS011;62266;53.348;-1.496;2023-06-19T18:07:41;2.25;;;1.88;;
73919;SDS011;62266;53.348;-1.496;2023-06-19T18:10:25;3.27;;;1.73;;
73919;SDS011;62266;53.348;-1.496;2023-06-19T18:13:09;2.45;;;1.52;;
73919;SDS011;62266;53.348;-1.496;2023-06-19T18:15:53;4.03;;;1.80;;
73919;SDS011;62266;53.348;-1.496;2023-06-19T18:18:47;2.13;;;1.60;;
73919;SDS011;62266;53.348;-1.496;2023-06-19T18:21:34;3.63;;;1.63;;
73919;SDS011;62266;53.348;-1.496;2023-06-19T18:24:18;2.60;;;1.37;;
73919;SDS011;62266;53.348;-1.496;2023-06-19T18:27:02;2.42;;;1.67;;
73919;SDS011;62266;53.348;-1.496;2023-06-19T18:29:47;2.30;;;1.60;;
73919;SDS011;62266;53.348;-1.496;2023-06-19T18:32:35;3.30;;;1.70;;
73919;SDS011;62266;53.348;-1.496;2023-06-19T18:35:19;3.15;;;1.70;;
73919;SDS011;62266;53.348;-1.496;2023-06-19T18:38:03;2.93;;;2.00;;
73919;SDS011;62266;53.348;-1.496;2023-06-19T18:40:47;2.60;;;1.77;;
73919;SDS011;62266;53.348;-1.496;2023-06-19T18:43:32;3.00;;;1.70;;
73919;SDS011;62266;53.348;-1.496;2023-06-19T18:46:16;2.25;;;1.80;;
73919;SDS011;62266;53.348;-1.496;2023-06-19T18:49:02;2.65;;;1.90;;
73919;SDS011;62266;53.348;-1.496;2023-06-19T18:51:46;3.53;;;1.90;;
73919;SDS011;62266;53.348;-1.496;2023-06-19T18:54:31;3.63;;;1.75;;
73919;SDS011;62266;53.348;-1.496;2023-06-19T18:57:15;2.15;;;1.65;;
73919;SDS011;62266;53.348;-1.496;2023-06-19T19:00:00;2.72;;;1.58;;
73919;SDS011;62266;53.348;-1.496;2023-06-19T19:02:44;3.65;;;2.17;;
73919;SDS011;62266;53.348;-1.496;2023-06-19T19:05:29;2.87;;;1.90;;
73919;SDS011;62266;53.348;-1.496;2023-06-19T19:08:15;4.22;;;2.25;;
73919;SDS011;62266;53.348;-1.496;2023-06-19T19:10:59;2.83;;;2.35;;
73919;SDS011;62266;53.348;-1.496;2023-06-19T19:13:46;3.42;;;2.17;;
73919;SDS011;62266;53.348;-1.496;2023-06-19T19:16:30;2.50;;;2.08;;
73919;SDS011;62266;53.348;-1.496;2023-06-19T19:19:14;5.53;;;2.33;;
73919;SDS011;62266;53.348;-1.496;2023-06-19T19:21:58;5.63;;;2.60;;
73919;SDS011;62266;53.348;-1.496;2023-06-19T19:24:42;4.63;;;2.85;;
73919;SDS011;62266;53.348;-1.496;2023-06-19T19:27:26;4.18;;;2.47;;
73919;SDS011;62266;53.348;-1.496;2023-06-19T19:30:11;3.20;;;2.10;;
73919;SDS011;62266;53.348;-1.496;2023-06-19T19:32:55;4.57;;;2.60;;
73919;SDS011;62266;53.348;-1.496;2023-06-19T19:35:42;2.83;;;2.20;;
73919;SDS011;62266;53.348;-1.496;2023-06-19T19:38:32;4.80;;;2.20;;
73919;SDS011;62266;53.348;-1.496;2023-06-19T19:41:16;5.45;;;2.15;;
73919;SDS011;62266;53.348;-1.496;2023-06-19T19:44:00;3.53;;;2.17;;
73919;SDS011;62266;53.348;-1.496;2023-06-19T19:46:44;2.60;;;2.07;;
73919;SDS011;62266;53.348;-1.496;2023-06-19T19:49:29;2.50;;;1.83;;
73919;SDS011;62266;53.348;-1.496;2023-06-19T19:52:13;4.65;;;2.30;;
73919;SDS011;62266;53.348;-1.496;2023-06-19T19:54:57;4.18;;;2.20;;
73919;SDS011;62266;53.348;-1.496;2023-06-19T19:57:41;3.30;;;2.28;;
73919;SDS011;62266;53.348;-1.496;2023-06-19T20:00:25;5.13;;;2.47;;
73919;SDS011;62266;53.348;-1.496;2023-06-19T20:03:09;3.90;;;2.22;;
73919;SDS011;62266;53.348;-1.496;2023-06-19T20:05:53;3.92;;;2.40;;
73919;SDS011;62266;53.348;-1.496;2023-06-19T20:08:40;7.30;;;2.67;;
